sensor_id;sensor_type;location;lat;lon;timestamp;P1;durP1;ratioP1;P2;durP2;ratioP2
50671;SDS011;46021;55.882;37.654;2022-10-17T00:00:36;6.97;;;2.63;;
50671;SDS011;46021;55.882;37.654;2022-10-17T00:03:03;8.60;;;4.20;;
50671;SDS011;46021;55.882;37.654;2022-10-17T00:05:30;4.60;;;2.38;;
50671;SDS011;46021;55.882;37.654;2022-10-17T00:08:08;6.53;;;3.80;;
50671;SDS011;46021;55.882;37.654;2022-10-17T00:10:41;8.27;;;4.40;;
50671;SDS011;46021;55.882;37.654;2022-10-17T00:13:09;7.35;;;3.58;;
50671;SDS011;46021;55.882;37.654;2022-10-17T00:15:37;8.15;;;4.05;;
50671;SDS011;46021;55.882;37.654;2022-10-17T00:18:04;5.60;;;2.87;;
50671;SDS011;46021;55.882;37.654;2022-10-17T00:20:33;5.50;;;2.90;;
50671;SDS011;46021;55.882;37.654;2022-10-17T00:23:00;6.82;;;4.20;;
50671;SDS011;46021;55.882;37.654;2022-10-17T00:25:28;13.10;;;4.55;;
50671;SDS011;46021;55.882;37.654;2022-10-17T00:27:56;10.68;;;3.10;;
50671;SDS011;46021;55.882;37.654;2022-10-17T00:30:23;9.45;;;4.03;;
50671;SDS011;46021;55.882;37.654;2022-10-17T00:32:50;5.45;;;2.55;;
50671;SDS011;46021;55.882;37.654;2022-10-17T00:35:18;6.55;;;2.55;;
50671;SDS011;46021;55.882;37.654;2022-10-17T00:37:46;5.30;;;3.58;;
50671;SDS011;46021;55.882;37.654;2022-10-17T00:40:13;5.60;;;2.97;;
50671;SDS011;46021;55.882;37.654;2022-10-17T00:42:40;5.97;;;3.75;;
50671;SDS011;46021;55.882;37.654;2022-10-17T00:45:16;9.25;;;3.15;;
50671;SDS011;46021;55.882;37.654;2022-10-17T00:47:48;5.15;;;3.72;;
50671;SDS011;46021;55.882;37.654;2022-10-17T00:50:19;9.52;;;4.53;;
50671;SDS011;46021;55.882;37.654;2022-10-17T00:52:48;9.88;;;3.85;;
50671;SDS011;46021;55.882;37.654;2022-10-17T00:55:18;11.07;;;4.03;;
50671;SDS011;46021;55.882;37.654;2022-10-17T00:57:48;8.80;;;3.92;;
50671;SDS011;46021;55.882;37.654;2022-10-17T01:00:19;16.88;;;7.68;;
50671;SDS011;46021;55.882;37.654;2022-10-17T01:02:46;10.23;;;5.70;;
50671;SDS011;46021;55.882;37.654;2022-10-17T01:05:16;9.00;;;4.15;;
50671;SDS011;46021;55.882;37.654;2022-10-17T01:07:44;7.85;;;4.05;;
50671;SDS011;46021;55.882;37.654;2022-10-17T01:10:15;7.53;;;4.07;;
50671;SDS011;46021;55.882;37.654;2022-10-17T01:12:45;9.10;;;2.42;;
50671;SDS011;46021;55.882;37.654;2022-10-17T01:15:24;6.07;;;2.53;;
50671;SDS011;46021;55.882;37.654;2022-10-17T01:18:05;6.05;;;3.80;;
50671;SDS011;46021;55.882;37.654;2022-10-17T01:23:48;6.70;;;3.85;;
50671;SDS011;46021;55.882;37.654;2022-10-17T01:26:29;8.02;;;3.80;;
50671;SDS011;46021;55.882;37.654;2022-10-17T01:29:25;9.13;;;4.22;;
50671;SDS011;46021;55.882;37.654;2022-10-17T01:32:12;9.15;;;3.85;;
50671;SDS011;46021;55.882;37.654;2022-10-17T01:34:43;6.88;;;4.18;;
50671;SDS011;46021;55.882;37.654;2022-10-17T01:37:17;8.30;;;4.25;;
50671;SDS011;46021;55.882;37.654;2022-10-17T01:39:49;7.57;;;4.50;;
50671;SDS011;46021;55.882;37.654;2022-10-17T01:42:21;9.60;;;4.15;;
50671;SDS011;46021;55.882;37.654;2022-10-17T01:44:54;6.38;;;4.10;;
50671;SDS011;46021;55.882;37.654;2022-10-17T01:47:28;7.85;;;4.00;;
50671;SDS011;46021;55.882;37.654;2022-10-17T01:50:00;7.00;;;4.28;;
50671;SDS011;46021;55.882;37.654;2022-10-17T01:52:31;6.68;;;4.40;;
50671;SDS011;46021;55.882;37.654;2022-10-17T01:55:03;7.18;;;4.15;;
50671;SDS011;46021;55.882;37.654;2022-10-17T01:57:35;9.30;;;4.10;;
50671;SDS011;46021;55.882;37.654;2022-10-17T02:00:07;9.48;;;3.97;;
50671;SDS011;46021;55.882;37.654;2022-10-17T02:02:40;9.43;;;4.03;;
50671;SDS011;46021;55.882;37.654;2022-10-17T02:05:09;7.70;;;4.35;;
50671;SDS011;46021;55.882;37.654;2022-10-17T02:07:36;13.20;;;3.00;;
50671;SDS011;46021;55.882;37.654;2022-10-17T02:10:08;8.05;;;4.22;;
50671;SDS011;46021;55.882;37.654;2022-10-17T02:12:44;12.02;;;4.43;;
50671;SDS011;46021;55.882;37.654;2022-10-17T02:15:27;10.23;;;3.70;;
50671;SDS011;46021;55.882;37.654;2022-10-17T02:18:13;9.02;;;5.18;;
50671;SDS011;46021;55.882;37.654;2022-10-17T02:20:48;17.38;;;4.22;;
50671;SDS011;46021;55.882;37.654;2022-10-17T02:23:22;9.75;;;4.60;;
50671;SDS011;46021;55.882;37.654;2022-10-17T02:26:00;5.60;;;2.65;;
50671;SDS011;46021;55.882;37.654;2022-10-17T02:28:34;7.32;;;4.20;;
50671;SDS011;46021;55.882;37.654;2022-10-17T02:31:09;10.75;;;4.53;;
50671;SDS011;46021;55.882;37.654;2022-10-17T02:33:45;8.70;;;4.47;;
50671;SDS011;46021;55.882;37.654;2022-10-17T02:36:19;6.88;;;4.07;;
50671;SDS011;46021;55.882;37.654;2022-10-17T02:38:50;8.35;;;4.15;;
50671;SDS011;46021;55.882;37.654;2022-10-17T02:41:19;10.30;;;4.95;;
50671;SDS011;46021;55.882;37.654;2022-10-17T02:43:50;9.90;;;4.70;;
50671;SDS011;46021;55.882;37.654;2022-10-17T02:46:19;9.57;;;4.18;;
50671;SDS011;46021;55.882;37.654;2022-10-17T02:48:50;9.85;;;4.95;;
50671;SDS011;46021;55.882;37.654;2022-10-17T02:51:21;13.32;;;4.53;;
50671;SDS011;46021;55.882;37.654;2022-10-17T02:53:57;7.93;;;4.40;;
50671;SDS011;46021;55.882;37.654;2022-10-17T02:56:33;7.03;;;4.55;;
50671;SDS011;46021;55.882;37.654;2022-10-17T02:59:07;8.57;;;3.35;;
50671;SDS011;46021;55.882;37.654;2022-10-17T03:01:37;8.43;;;4.38;;
50671;SDS011;46021;55.882;37.654;2022-10-17T03:04:07;6.80;;;2.45;;
50671;SDS011;46021;55.882;37.654;2022-10-17T03:06:36;7.32;;;4.30;;
50671;SDS011;46021;55.882;37.654;2022-10-17T03:09:04;9.63;;;3.03;;
50671;SDS011;46021;55.882;37.654;2022-10-17T03:11:32;7.10;;;3.15;;
50671;SDS011;46021;55.882;37.654;2022-10-17T03:14:00;6.30;;;4.20;;
50671;SDS011;46021;55.882;37.654;2022-10-17T03:16:27;6.70;;;2.77;;
50671;SDS011;46021;55.882;37.654;2022-10-17T03:18:54;14.83;;;6.03;;
50671;SDS011;46021;55.882;37.654;2022-10-17T03:21:23;7.88;;;3.10;;
50671;SDS011;46021;55.882;37.654;2022-10-17T03:23:50;9.95;;;4.45;;
50671;SDS011;46021;55.882;37.654;2022-10-17T03:26:20;7.75;;;4.63;;
50671;SDS011;46021;55.882;37.654;2022-10-17T03:28:47;10.15;;;3.35;;
50671;SDS011;46021;55.882;37.654;2022-10-17T03:31:15;5.18;;;2.53;;
50671;SDS011;46021;55.882;37.654;2022-10-17T03:33:44;9.68;;;2.47;;
50671;SDS011;46021;55.882;37.654;2022-10-17T03:36:11;11.82;;;3.35;;
50671;SDS011;46021;55.882;37.654;2022-10-17T03:38:41;13.15;;;4.95;;
50671;SDS011;46021;55.882;37.654;2022-10-17T03:41:09;10.70;;;4.50;;
50671;SDS011;46021;55.882;37.654;2022-10-17T03:43:38;7.63;;;4.72;;
50671;SDS011;46021;55.882;37.654;2022-10-17T03:46:06;9.57;;;4.68;;
50671;SDS011;46021;55.882;37.654;2022-10-17T03:48:33;23.13;;;6.05;;
50671;SDS011;46021;55.882;37.654;2022-10-17T03:51:02;8.98;;;4.38;;
50671;SDS011;46021;55.882;37.654;2022-10-17T03:53:33;11.50;;;4.93;;
50671;SDS011;46021;55.882;37.654;2022-10-17T03:56:10;12.85;;;4.70;;
50671;SDS011;46021;55.882;37.654;2022-10-17T03:58:38;11.85;;;5.35;;
50671;SDS011;46021;55.882;37.654;2022-10-17T04:01:07;8.27;;;2.80;;
50671;SDS011;46021;55.882;37.654;2022-10-17T04:03:36;18.92;;;9.40;;
50671;SDS011;46021;55.882;37.654;2022-10-17T04:06:03;9.57;;;4.40;;
50671;SDS011;46021;55.882;37.654;2022-10-17T04:08:33;9.07;;;4.90;;
50671;SDS011;46021;55.882;37.654;2022-10-17T04:11:07;7.88;;;4.07;;
50671;SDS011;46021;55.882;37.654;2022-10-17T04:13:36;9.18;;;4.70;;
50671;SDS011;46021;55.882;37.654;2022-10-17T04:16:04;12.98;;;4.78;;
50671;SDS011;46021;55.882;37.654;2022-10-17T04:18:38;9.13;;;4.53;;
50671;SDS011;46021;55.882;37.654;2022-10-17T04:21:05;7.07;;;3.07;;
50671;SDS011;46021;55.882;37.654;2022-10-17T04:26:10;12.70;;;5.53;;
50671;SDS011;46021;55.882;37.654;2022-10-17T04:28:40;8.32;;;2.83;;
50671;SDS011;46021;55.882;37.654;2022-10-17T04:31:09;11.13;;;4.45;;
50671;SDS011;46021;55.882;37.654;2022-10-17T04:33:58;11.30;;;4.88;;
50671;SDS011;46021;55.882;37.654;2022-10-17T04:36:25;6.50;;;2.70;;
50671;SDS011;46021;55.882;37.654;2022-10-17T04:38:53;9.15;;;3.85;;
50671;SDS011;46021;55.882;37.654;2022-10-17T04:41:20;9.63;;;3.67;;
50671;SDS011;46021;55.882;37.654;2022-10-17T04:43:49;11.40;;;3.17;;
50671;SDS011;46021;55.882;37.654;2022-10-17T04:46:17;9.63;;;4.72;;
50671;SDS011;46021;55.882;37.654;2022-10-17T04:48:44;10.82;;;4.47;;
50671;SDS011;46021;55.882;37.654;2022-10-17T04:51:12;6.33;;;2.83;;
50671;SDS011;46021;55.882;37.654;2022-10-17T04:54:03;7.15;;;3.25;;
50671;SDS011;46021;55.882;37.654;2022-10-17T04:56:31;10.93;;;4.97;;
50671;SDS011;46021;55.882;37.654;2022-10-17T04:59:00;12.40;;;2.93;;
50671;SDS011;46021;55.882;37.654;2022-10-17T05:01:27;25.48;;;12.70;;
50671;SDS011;46021;55.882;37.654;2022-10-17T05:03:55;12.27;;;5.55;;
50671;SDS011;46021;55.882;37.654;2022-10-17T05:06:23;18.77;;;3.72;;
50671;SDS011;46021;55.882;37.654;2022-10-17T05:11:39;9.45;;;4.90;;
50671;SDS011;46021;55.882;37.654;2022-10-17T05:14:10;15.13;;;5.07;;
50671;SDS011;46021;55.882;37.654;2022-10-17T05:16:37;12.18;;;5.18;;
50671;SDS011;46021;55.882;37.654;2022-10-17T05:19:04;10.25;;;3.50;;
50671;SDS011;46021;55.882;37.654;2022-10-17T05:21:37;12.98;;;5.38;;
50671;SDS011;46021;55.882;37.654;2022-10-17T05:24:05;8.75;;;5.20;;
50671;SDS011;46021;55.882;37.654;2022-10-17T05:26:33;8.38;;;5.20;;
50671;SDS011;46021;55.882;37.654;2022-10-17T05:29:01;8.75;;;5.05;;
50671;SDS011;46021;55.882;37.654;2022-10-17T05:31:32;18.92;;;4.88;;
50671;SDS011;46021;55.882;37.654;2022-10-17T05:33:59;9.88;;;4.90;;
50671;SDS011;46021;55.882;37.654;2022-10-17T05:36:28;16.20;;;5.07;;
50671;SDS011;46021;55.882;37.654;2022-10-17T05:38:56;9.65;;;5.03;;
50671;SDS011;46021;55.882;37.654;2022-10-17T05:41:24;9.48;;;3.92;;
50671;SDS011;46021;55.882;37.654;2022-10-17T05:43:51;8.00;;;3.60;;
50671;SDS011;46021;55.882;37.654;2022-10-17T05:46:27;13.98;;;5.05;;
50671;SDS011;46021;55.882;37.654;2022-10-17T05:48:57;9.70;;;4.80;;
50671;SDS011;46021;55.882;37.654;2022-10-17T05:51:24;10.13;;;4.85;;
50671;SDS011;46021;55.882;37.654;2022-10-17T05:53:55;11.07;;;5.25;;
50671;SDS011;46021;55.882;37.654;2022-10-17T05:56:25;18.25;;;7.80;;
50671;SDS011;46021;55.882;37.654;2022-10-17T05:58:53;11.65;;;4.80;;
50671;SDS011;46021;55.882;37.654;2022-10-17T06:01:41;17.05;;;5.53;;
50671;SDS011;46021;55.882;37.654;2022-10-17T06:04:09;11.80;;;5.00;;
50671;SDS011;46021;55.882;37.654;2022-10-17T06:06:37;9.90;;;5.30;;
50671;SDS011;46021;55.882;37.654;2022-10-17T06:09:05;10.18;;;4.78;;
50671;SDS011;46021;55.882;37.654;2022-10-17T06:11:36;11.77;;;5.30;;
50671;SDS011;46021;55.882;37.654;2022-10-17T06:14:05;7.25;;;4.65;;
50671;SDS011;46021;55.882;37.654;2022-10-17T06:16:34;11.02;;;4.80;;
50671;SDS011;46021;55.882;37.654;2022-10-17T06:19:01;8.33;;;4.60;;
50671;SDS011;46021;55.882;37.654;2022-10-17T06:21:29;10.63;;;4.83;;
50671;SDS011;46021;55.882;37.654;2022-10-17T06:24:06;17.55;;;9.38;;
50671;SDS011;46021;55.882;37.654;2022-10-17T06:26:35;15.23;;;6.35;;
50671;SDS011;46021;55.882;37.654;2022-10-17T06:29:05;13.73;;;4.95;;
50671;SDS011;46021;55.882;37.654;2022-10-17T06:31:36;10.10;;;5.30;;
50671;SDS011;46021;55.882;37.654;2022-10-17T06:34:04;14.70;;;5.43;;
50671;SDS011;46021;55.882;37.654;2022-10-17T06:36:32;16.10;;;5.95;;
50671;SDS011;46021;55.882;37.654;2022-10-17T06:39:00;10.98;;;4.68;;
50671;SDS011;46021;55.882;37.654;2022-10-17T06:41:34;16.02;;;5.00;;
50671;SDS011;46021;55.882;37.654;2022-10-17T06:44:06;10.52;;;4.85;;
50671;SDS011;46021;55.882;37.654;2022-10-17T06:46:35;13.90;;;4.82;;
50671;SDS011;46021;55.882;37.654;2022-10-17T06:49:04;12.38;;;5.18;;
50671;SDS011;46021;55.882;37.654;2022-10-17T06:52:02;16.55;;;5.93;;
50671;SDS011;46021;55.882;37.654;2022-10-17T06:54:42;8.20;;;4.78;;
50671;SDS011;46021;55.882;37.654;2022-10-17T06:57:29;12.63;;;5.18;;
50671;SDS011;46021;55.882;37.654;2022-10-17T07:00:07;11.10;;;5.07;;
50671;SDS011;46021;55.882;37.654;2022-10-17T07:02:41;10.48;;;5.07;;
50671;SDS011;46021;55.882;37.654;2022-10-17T07:05:09;9.35;;;4.97;;
50671;SDS011;46021;55.882;37.654;2022-10-17T07:07:38;14.85;;;5.22;;
50671;SDS011;46021;55.882;37.654;2022-10-17T07:10:05;11.32;;;5.72;;
50671;SDS011;46021;55.882;37.654;2022-10-17T07:12:35;11.85;;;5.18;;
50671;SDS011;46021;55.882;37.654;2022-10-17T07:15:03;20.58;;;5.63;;
50671;SDS011;46021;55.882;37.654;2022-10-17T07:17:30;10.98;;;5.32;;
50671;SDS011;46021;55.882;37.654;2022-10-17T07:19:57;10.33;;;5.27;;
50671;SDS011;46021;55.882;37.654;2022-10-17T07:22:25;11.68;;;4.68;;
50671;SDS011;46021;55.882;37.654;2022-10-17T07:24:57;18.85;;;5.50;;
50671;SDS011;46021;55.882;37.654;2022-10-17T07:27:32;12.88;;;4.75;;
50671;SDS011;46021;55.882;37.654;2022-10-17T07:32:36;11.65;;;5.53;;
50671;SDS011;46021;55.882;37.654;2022-10-17T07:37:31;29.10;;;13.70;;
50671;SDS011;46021;55.882;37.654;2022-10-17T07:40:00;17.50;;;5.63;;
50671;SDS011;46021;55.882;37.654;2022-10-17T07:42:28;10.27;;;5.75;;
50671;SDS011;46021;55.882;37.654;2022-10-17T07:47:25;10.68;;;5.78;;
50671;SDS011;46021;55.882;37.654;2022-10-17T07:49:55;9.25;;;5.60;;
50671;SDS011;46021;55.882;37.654;2022-10-17T07:52:22;9.13;;;5.00;;
50671;SDS011;46021;55.882;37.654;2022-10-17T07:54:49;11.68;;;5.78;;
50671;SDS011;46021;55.882;37.654;2022-10-17T07:57:18;13.13;;;5.75;;
50671;SDS011;46021;55.882;37.654;2022-10-17T07:59:45;12.45;;;5.55;;
50671;SDS011;46021;55.882;37.654;2022-10-17T08:02:13;13.88;;;5.63;;
50671;SDS011;46021;55.882;37.654;2022-10-17T08:04:46;11.18;;;5.13;;
50671;SDS011;46021;55.882;37.654;2022-10-17T08:07:13;18.00;;;6.07;;
50671;SDS011;46021;55.882;37.654;2022-10-17T08:09:41;20.17;;;10.23;;
50671;SDS011;46021;55.882;37.654;2022-10-17T08:12:08;17.83;;;6.03;;
50671;SDS011;46021;55.882;37.654;2022-10-17T08:14:37;12.73;;;6.87;;
50671;SDS011;46021;55.882;37.654;2022-10-17T08:17:04;11.18;;;6.50;;
50671;SDS011;46021;55.882;37.654;2022-10-17T08:19:31;13.30;;;4.13;;
50671;SDS011;46021;55.882;37.654;2022-10-17T08:21:58;11.40;;;6.22;;
50671;SDS011;46021;55.882;37.654;2022-10-17T08:24:27;14.77;;;6.75;;
50671;SDS011;46021;55.882;37.654;2022-10-17T08:26:54;11.82;;;4.78;;
50671;SDS011;46021;55.882;37.654;2022-10-17T08:29:22;11.43;;;6.68;;
50671;SDS011;46021;55.882;37.654;2022-10-17T08:31:51;19.60;;;6.63;;
50671;SDS011;46021;55.882;37.654;2022-10-17T08:34:19;14.32;;;5.93;;
50671;SDS011;46021;55.882;37.654;2022-10-17T08:36:46;15.93;;;7.43;;
50671;SDS011;46021;55.882;37.654;2022-10-17T08:39:13;8.13;;;3.70;;
50671;SDS011;46021;55.882;37.654;2022-10-17T08:41:47;13.57;;;4.00;;
50671;SDS011;46021;55.882;37.654;2022-10-17T08:44:26;12.00;;;5.95;;
50671;SDS011;46021;55.882;37.654;2022-10-17T08:47:04;14.45;;;6.25;;
50671;SDS011;46021;55.882;37.654;2022-10-17T08:49:36;12.65;;;7.40;;
50671;SDS011;46021;55.882;37.654;2022-10-17T08:52:10;13.20;;;6.53;;
50671;SDS011;46021;55.882;37.654;2022-10-17T08:54:46;8.82;;;5.85;;
50671;SDS011;46021;55.882;37.654;2022-10-17T08:59:42;12.15;;;6.35;;
50671;SDS011;46021;55.882;37.654;2022-10-17T09:02:19;16.27;;;7.10;;
50671;SDS011;46021;55.882;37.654;2022-10-17T09:05:03;16.92;;;6.28;;
50671;SDS011;46021;55.882;37.654;2022-10-17T09:07:51;12.02;;;6.65;;
50671;SDS011;46021;55.882;37.654;2022-10-17T09:10:28;14.75;;;7.13;;
50671;SDS011;46021;55.882;37.654;2022-10-17T09:13:06;13.15;;;6.85;;
50671;SDS011;46021;55.882;37.654;2022-10-17T09:15:52;17.30;;;7.65;;
50671;SDS011;46021;55.882;37.654;2022-10-17T09:18:30;15.75;;;7.40;;
50671;SDS011;46021;55.882;37.654;2022-10-17T09:21:00;14.65;;;6.80;;
50671;SDS011;46021;55.882;37.654;2022-10-17T09:26:09;17.63;;;7.68;;
50671;SDS011;46021;55.882;37.654;2022-10-17T09:28:38;19.20;;;8.38;;
50671;SDS011;46021;55.882;37.654;2022-10-17T09:31:09;23.70;;;9.32;;
50671;SDS011;46021;55.882;37.654;2022-10-17T09:33:41;20.52;;;8.75;;
50671;SDS011;46021;55.882;37.654;2022-10-17T09:36:12;13.60;;;8.63;;
50671;SDS011;46021;55.882;37.654;2022-10-17T09:38:41;16.45;;;8.43;;
50671;SDS011;46021;55.882;37.654;2022-10-17T09:41:15;15.90;;;9.02;;
50671;SDS011;46021;55.882;37.654;2022-10-17T09:43:44;15.52;;;8.68;;
50671;SDS011;46021;55.882;37.654;2022-10-17T09:46:14;13.70;;;8.00;;
50671;SDS011;46021;55.882;37.654;2022-10-17T09:48:51;15.77;;;7.60;;
50671;SDS011;46021;55.882;37.654;2022-10-17T09:51:23;16.08;;;7.72;;
50671;SDS011;46021;55.882;37.654;2022-10-17T09:56:21;16.45;;;7.90;;
50671;SDS011;46021;55.882;37.654;2022-10-17T09:58:50;13.50;;;7.65;;
50671;SDS011;46021;55.882;37.654;2022-10-17T10:01:19;12.85;;;8.25;;
50671;SDS011;46021;55.882;37.654;2022-10-17T10:03:48;16.23;;;8.60;;
50671;SDS011;46021;55.882;37.654;2022-10-17T10:06:35;13.68;;;8.23;;
50671;SDS011;46021;55.882;37.654;2022-10-17T10:09:03;12.23;;;8.07;;
50671;SDS011;46021;55.882;37.654;2022-10-17T10:11:44;16.15;;;8.82;;
50671;SDS011;46021;55.882;37.654;2022-10-17T10:14:18;15.10;;;7.88;;
50671;SDS011;46021;55.882;37.654;2022-10-17T10:16:48;14.50;;;8.68;;
50671;SDS011;46021;55.882;37.654;2022-10-17T10:19:25;20.25;;;9.40;;
50671;SDS011;46021;55.882;37.654;2022-10-17T10:21:57;15.18;;;8.55;;
50671;SDS011;46021;55.882;37.654;2022-10-17T10:24:25;16.85;;;8.93;;
50671;SDS011;46021;55.882;37.654;2022-10-17T10:26:53;15.60;;;9.32;;
50671;SDS011;46021;55.882;37.654;2022-10-17T10:29:25;15.25;;;9.02;;
50671;SDS011;46021;55.882;37.654;2022-10-17T10:31:55;15.10;;;8.07;;
50671;SDS011;46021;55.882;37.654;2022-10-17T10:34:33;14.63;;;8.68;;
50671;SDS011;46021;55.882;37.654;2022-10-17T10:37:03;13.13;;;7.93;;
50671;SDS011;46021;55.882;37.654;2022-10-17T10:39:43;15.50;;;8.57;;
50671;SDS011;46021;55.882;37.654;2022-10-17T10:42:21;16.90;;;8.77;;
50671;SDS011;46021;55.882;37.654;2022-10-17T10:44:52;17.25;;;9.45;;
50671;SDS011;46021;55.882;37.654;2022-10-17T10:47:22;13.40;;;8.32;;
50671;SDS011;46021;55.882;37.654;2022-10-17T10:49:52;14.07;;;8.52;;
50671;SDS011;46021;55.882;37.654;2022-10-17T10:52:37;17.20;;;9.07;;
50671;SDS011;46021;55.882;37.654;2022-10-17T10:55:14;15.00;;;7.93;;
50671;SDS011;46021;55.882;37.654;2022-10-17T10:57:48;13.23;;;8.75;;
50671;SDS011;46021;55.882;37.654;2022-10-17T11:00:20;16.05;;;8.57;;
50671;SDS011;46021;55.882;37.654;2022-10-17T11:02:53;13.50;;;8.38;;
50671;SDS011;46021;55.882;37.654;2022-10-17T11:05:34;15.65;;;8.82;;
50671;SDS011;46021;55.882;37.654;2022-10-17T11:08:09;17.40;;;8.43;;
50671;SDS011;46021;55.882;37.654;2022-10-17T11:10:48;16.63;;;8.85;;
50671;SDS011;46021;55.882;37.654;2022-10-17T11:13:25;16.15;;;8.60;;
50671;SDS011;46021;55.882;37.654;2022-10-17T11:15:58;15.88;;;8.82;;
50671;SDS011;46021;55.882;37.654;2022-10-17T11:18:32;16.73;;;9.32;;
50671;SDS011;46021;55.882;37.654;2022-10-17T11:21:09;15.18;;;9.00;;
50671;SDS011;46021;55.882;37.654;2022-10-17T11:23:43;15.52;;;9.48;;
50671;SDS011;46021;55.882;37.654;2022-10-17T11:26:15;12.77;;;8.90;;
50671;SDS011;46021;55.882;37.654;2022-10-17T11:28:51;16.55;;;9.82;;
50671;SDS011;46021;55.882;37.654;2022-10-17T11:31:19;22.70;;;9.27;;
50671;SDS011;46021;55.882;37.654;2022-10-17T11:33:49;16.90;;;10.10;;
50671;SDS011;46021;55.882;37.654;2022-10-17T11:36:20;14.77;;;8.95;;
50671;SDS011;46021;55.882;37.654;2022-10-17T11:38:55;14.20;;;8.77;;
50671;SDS011;46021;55.882;37.654;2022-10-17T11:41:33;14.68;;;9.38;;
50671;SDS011;46021;55.882;37.654;2022-10-17T11:44:10;17.55;;;9.02;;
50671;SDS011;46021;55.882;37.654;2022-10-17T11:46:46;15.90;;;9.50;;
50671;SDS011;46021;55.882;37.654;2022-10-17T11:49:17;18.50;;;9.90;;
50671;SDS011;46021;55.882;37.654;2022-10-17T11:51:49;15.40;;;9.55;;
50671;SDS011;46021;55.882;37.654;2022-10-17T11:54:23;15.70;;;8.95;;
50671;SDS011;46021;55.882;37.654;2022-10-17T11:56:57;17.58;;;10.07;;
50671;SDS011;46021;55.882;37.654;2022-10-17T11:59:43;24.48;;;9.43;;
50671;SDS011;46021;55.882;37.654;2022-10-17T12:02:32;17.35;;;9.32;;
50671;SDS011;46021;55.882;37.654;2022-10-17T12:05:11;15.18;;;9.40;;
50671;SDS011;46021;55.882;37.654;2022-10-17T12:07:47;17.35;;;9.65;;
50671;SDS011;46021;55.882;37.654;2022-10-17T12:10:29;13.15;;;9.13;;
50671;SDS011;46021;55.882;37.654;2022-10-17T12:16:38;17.05;;;10.13;;
50671;SDS011;46021;55.882;37.654;2022-10-17T12:22:00;14.75;;;9.73;;
50671;SDS011;46021;55.882;37.654;2022-10-17T12:24:34;15.68;;;9.52;;
50671;SDS011;46021;55.882;37.654;2022-10-17T12:27:21;18.02;;;10.23;;
50671;SDS011;46021;55.882;37.654;2022-10-17T12:30:00;19.75;;;9.95;;
50671;SDS011;46021;55.882;37.654;2022-10-17T12:32:30;17.42;;;9.38;;
50671;SDS011;46021;55.882;37.654;2022-10-17T12:34:58;20.08;;;10.98;;
50671;SDS011;46021;55.882;37.654;2022-10-17T12:43:43;16.90;;;11.18;;
50671;SDS011;46021;55.882;37.654;2022-10-17T12:46:39;14.02;;;9.85;;
50671;SDS011;46021;55.882;37.654;2022-10-17T12:55:10;17.83;;;10.30;;
50671;SDS011;46021;55.882;37.654;2022-10-17T12:57:46;18.83;;;10.68;;
50671;SDS011;46021;55.882;37.654;2022-10-17T13:00:19;20.55;;;11.13;;
50671;SDS011;46021;55.882;37.654;2022-10-17T13:02:51;16.52;;;10.98;;
50671;SDS011;46021;55.882;37.654;2022-10-17T13:05:26;18.67;;;11.43;;
50671;SDS011;46021;55.882;37.654;2022-10-17T13:07:56;20.75;;;11.30;;
50671;SDS011;46021;55.882;37.654;2022-10-17T13:10:28;19.40;;;11.52;;
50671;SDS011;46021;55.882;37.654;2022-10-17T13:13:01;18.42;;;11.80;;
50671;SDS011;46021;55.882;37.654;2022-10-17T13:15:36;21.77;;;12.45;;
50671;SDS011;46021;55.882;37.654;2022-10-17T13:18:03;19.23;;;12.07;;
50671;SDS011;46021;55.882;37.654;2022-10-17T13:20:33;25.80;;;11.98;;
50671;SDS011;46021;55.882;37.654;2022-10-17T13:23:00;21.85;;;12.45;;
50671;SDS011;46021;55.882;37.654;2022-10-17T13:25:28;20.80;;;12.93;;
50671;SDS011;46021;55.882;37.654;2022-10-17T13:28:06;21.30;;;12.90;;
50671;SDS011;46021;55.882;37.654;2022-10-17T13:30:44;23.25;;;12.55;;
50671;SDS011;46021;55.882;37.654;2022-10-17T13:33:20;20.02;;;11.63;;
50671;SDS011;46021;55.882;37.654;2022-10-17T13:35:56;23.63;;;12.93;;
50671;SDS011;46021;55.882;37.654;2022-10-17T13:38:25;22.48;;;11.57;;
50671;SDS011;46021;55.882;37.654;2022-10-17T13:40:54;28.42;;;16.00;;
50671;SDS011;46021;55.882;37.654;2022-10-17T13:43:21;24.30;;;12.77;;
50671;SDS011;46021;55.882;37.654;2022-10-17T13:45:51;20.20;;;11.00;;
50671;SDS011;46021;55.882;37.654;2022-10-17T13:48:22;18.92;;;11.70;;
50671;SDS011;46021;55.882;37.654;2022-10-17T13:50:51;19.75;;;11.32;;
50671;SDS011;46021;55.882;37.654;2022-10-17T13:53:23;21.77;;;12.48;;
50671;SDS011;46021;55.882;37.654;2022-10-17T13:55:52;18.10;;;10.32;;
50671;SDS011;46021;55.882;37.654;2022-10-17T13:58:21;19.25;;;10.38;;
50671;SDS011;46021;55.882;37.654;2022-10-17T14:00:48;16.40;;;10.77;;
50671;SDS011;46021;55.882;37.654;2022-10-17T14:03:18;18.25;;;11.50;;
50671;SDS011;46021;55.882;37.654;2022-10-17T14:08:50;18.77;;;11.13;;
50671;SDS011;46021;55.882;37.654;2022-10-17T14:11:23;23.58;;;12.90;;
50671;SDS011;46021;55.882;37.654;2022-10-17T14:13:58;20.40;;;12.48;;
50671;SDS011;46021;55.882;37.654;2022-10-17T14:16:34;19.05;;;11.95;;
50671;SDS011;46021;55.882;37.654;2022-10-17T14:19:04;17.38;;;11.30;;
50671;SDS011;46021;55.882;37.654;2022-10-17T14:21:32;17.40;;;10.82;;
50671;SDS011;46021;55.882;37.654;2022-10-17T14:24:14;18.80;;;11.50;;
50671;SDS011;46021;55.882;37.654;2022-10-17T14:26:56;19.15;;;11.43;;
50671;SDS011;46021;55.882;37.654;2022-10-17T14:29:25;21.63;;;12.13;;
50671;SDS011;46021;55.882;37.654;2022-10-17T14:31:59;19.70;;;11.57;;
50671;SDS011;46021;55.882;37.654;2022-10-17T14:34:29;23.30;;;11.15;;
50671;SDS011;46021;55.882;37.654;2022-10-17T14:37:00;17.42;;;10.82;;
50671;SDS011;46021;55.882;37.654;2022-10-17T14:39:34;17.10;;;10.25;;
50671;SDS011;46021;55.882;37.654;2022-10-17T14:42:01;21.38;;;10.63;;
50671;SDS011;46021;55.882;37.654;2022-10-17T14:44:29;19.30;;;10.55;;
50671;SDS011;46021;55.882;37.654;2022-10-17T14:47:01;17.40;;;9.98;;
50671;SDS011;46021;55.882;37.654;2022-10-17T14:49:31;20.30;;;11.13;;
50671;SDS011;46021;55.882;37.654;2022-10-17T14:54:56;17.55;;;11.15;;
50671;SDS011;46021;55.882;37.654;2022-10-17T14:57:25;18.10;;;10.55;;
50671;SDS011;46021;55.882;37.654;2022-10-17T14:59:54;22.40;;;10.90;;
50671;SDS011;46021;55.882;37.654;2022-10-17T15:02:24;18.52;;;11.70;;
50671;SDS011;46021;55.882;37.654;2022-10-17T15:04:52;18.67;;;11.18;;
50671;SDS011;46021;55.882;37.654;2022-10-17T15:07:20;18.52;;;10.80;;
50671;SDS011;46021;55.882;37.654;2022-10-17T15:09:49;21.45;;;11.70;;
50671;SDS011;46021;55.882;37.654;2022-10-17T15:12:19;18.52;;;11.77;;
50671;SDS011;46021;55.882;37.654;2022-10-17T15:14:47;18.35;;;11.70;;
50671;SDS011;46021;55.882;37.654;2022-10-17T15:17:16;22.40;;;11.05;;
50671;SDS011;46021;55.882;37.654;2022-10-17T15:19:46;23.42;;;13.20;;
50671;SDS011;46021;55.882;37.654;2022-10-17T15:22:14;21.10;;;11.80;;
50671;SDS011;46021;55.882;37.654;2022-10-17T15:24:42;17.40;;;10.40;;
50671;SDS011;46021;55.882;37.654;2022-10-17T15:27:13;18.95;;;11.35;;
50671;SDS011;46021;55.882;37.654;2022-10-17T15:29:42;20.05;;;11.55;;
50671;SDS011;46021;55.882;37.654;2022-10-17T15:32:10;26.73;;;13.02;;
50671;SDS011;46021;55.882;37.654;2022-10-17T15:34:37;21.13;;;11.43;;
50671;SDS011;46021;55.882;37.654;2022-10-17T15:37:06;18.97;;;12.03;;